createdAt,value
2023-02-22T00:00:50.001Z,24.52
2023-02-22T00:02:10.446Z,28.88
2023-02-22T00:03:16.768Z,18.23
2023-02-22T00:04:21.117Z,26.38
2023-02-22T00:05:24.820Z,32.28
2023-02-22T00:06:26.308Z,19.98
2023-02-22T00:07:27.726Z,23.83
2023-02-22T00:08:31.894Z,22.00
2023-02-22T00:09:33.344Z,23.23
2023-02-22T00:10:38.258Z,27.80
2023-02-22T00:11:46.437Z,30.58
2023-02-22T00:12:49.098Z,29.35
2023-02-22T00:13:50.813Z,26.52
2023-02-22T00:14:52.225Z,27.00
2023-02-22T00:15:53.700Z,23.27
2023-02-22T00:16:59.961Z,27.95
2023-02-22T00:18:03.028Z,26.63
2023-02-22T00:19:05.954Z,29.85
2023-02-22T00:20:08.541Z,22.88
2023-02-22T00:21:11.857Z,27.70
2023-02-22T00:22:13.260Z,24.92
2023-02-22T00:23:22.388Z,27.88
2023-02-22T00:24:24.580Z,28.52
2023-02-22T00:25:26.026Z,32.75
2023-02-22T00:26:27.700Z,24.38
2023-02-22T00:27:29.168Z,30.92
2023-02-22T00:28:30.705Z,27.17
2023-02-22T00:29:34.242Z,26.35
2023-02-22T00:30:35.804Z,30.90
2023-02-22T00:31:39.196Z,25.77
2023-02-22T00:32:40.738Z,27.50
2023-02-22T00:33:42.298Z,27.02
2023-02-22T00:34:43.700Z,20.38
2023-02-22T00:35:46.014Z,24.10
2023-02-22T00:36:48.648Z,28.35
2023-02-22T00:37:51.802Z,23.98
2023-02-22T00:38:53.236Z,28.75
2023-02-22T00:39:54.618Z,22.13
2023-02-22T00:40:56.048Z,23.52
2023-02-22T00:41:57.549Z,26.90
2023-02-22T00:43:00.857Z,27.70
2023-02-22T00:44:02.251Z,31.65
2023-02-22T00:45:05.113Z,28.60
2023-02-22T00:46:07.360Z,25.63
2023-02-22T00:47:08.948Z,27.70
2023-02-22T00:48:10.877Z,26.27
2023-02-22T00:49:12.308Z,25.05
2023-02-22T00:50:15.592Z,28.15
2023-02-22T00:51:17.213Z,29.48
2023-02-22T00:52:18.882Z,21.92
2023-02-22T00:53:20.727Z,28.30
2023-02-22T00:54:22.153Z,21.95
2023-02-22T00:55:29.869Z,21.17
2023-02-22T00:56:34.430Z,29.20
2023-02-22T00:57:36.733Z,24.45
2023-02-22T00:58:38.180Z,22.45
2023-02-22T00:59:39.608Z,22.65
2023-02-22T01:00:42.599Z,33.45
2023-02-22T01:01:44.120Z,19.50
2023-02-22T01:02:46.024Z,30.38
2023-02-22T01:03:47.593Z,36.33
2023-02-22T01:04:49.169Z,30.58
2023-02-22T01:05:50.730Z,29.95
2023-02-22T01:06:52.463Z,28.30
2023-02-22T01:07:58.558Z,26.75
2023-02-22T01:09:00.134Z,31.58
2023-02-22T01:10:02.713Z,32.35
2023-02-22T01:11:04.444Z,25.90
2023-02-22T01:12:06.266Z,32.90
2023-02-22T01:13:09.507Z,23.13
2023-02-22T01:14:11.633Z,24.83
2023-02-22T01:15:15.164Z,30.08
2023-02-22T01:16:16.631Z,31.00
2023-02-22T01:17:18.140Z,37.20
2023-02-22T01:18:21.837Z,24.98
2023-02-22T01:19:23.736Z,31.67
2023-02-22T01:20:26.584Z,18.70
2023-02-22T01:21:28.165Z,20.08
2023-02-22T01:22:29.602Z,30.38
2023-02-22T01:23:31.274Z,23.60
2023-02-22T01:24:32.704Z,22.60
2023-02-22T01:25:35.830Z,25.45
2023-02-22T01:26:37.915Z,29.10
2023-02-22T01:28:40.701Z,21.10
2023-02-22T01:29:42.233Z,25.98
2023-02-22T01:30:43.787Z,34.17
2023-02-22T01:31:53.016Z,29.98
2023-02-22T01:32:55.238Z,26.75
2023-02-22T01:33:56.683Z,25.88
2023-02-22T01:34:58.115Z,24.33
2023-02-22T01:36:00.099Z,29.38
2023-02-22T01:38:03.378Z,24.80
2023-02-22T01:39:04.793Z,24.05
2023-02-22T01:40:08.625Z,24.50
2023-02-22T01:41:10.020Z,26.05
2023-02-22T01:42:11.495Z,23.55
2023-02-22T01:43:21.785Z,25.40
2023-02-22T01:44:30.604Z,21.63
2023-02-22T01:45:34.906Z,29.35
2023-02-22T01:46:36.297Z,28.20
2023-02-22T01:47:37.816Z,30.63
2023-02-22T01:48:44.448Z,21.70
2023-02-22T01:49:50.111Z,24.83
2023-02-22T01:51:02.212Z,25.40
2023-02-22T01:52:08.745Z,27.10
2023-02-22T01:53:13.849Z,26.70
2023-02-22T01:54:30.086Z,19.27
2023-02-22T01:55:34.363Z,26.48
2023-02-22T01:56:39.429Z,30.92
2023-02-22T01:57:40.900Z,23.80
2023-02-22T01:58:47.181Z,27.73
2023-02-22T01:59:53.202Z,34.20
2023-02-22T02:00:55.510Z,48.60
2023-02-22T02:01:57.409Z,28.58
2023-02-22T02:03:04.447Z,32.35
2023-02-22T02:04:10.004Z,26.80
2023-02-22T02:05:13.139Z,24.73
2023-02-22T02:06:15.386Z,35.15
2023-02-22T02:07:18.916Z,36.65
2023-02-22T02:08:36.022Z,32.25
2023-02-22T02:09:48.602Z,29.25
2023-02-22T02:10:50.559Z,38.05
2023-02-22T02:11:53.254Z,24.60
2023-02-22T02:12:56.612Z,29.00
2023-02-22T02:13:59.175Z,33.13
2023-02-22T02:15:31.290Z,24.52
2023-02-22T02:17:45.772Z,21.65
2023-02-22T02:19:57.847Z,31.65
2023-02-22T02:21:20.578Z,31.08
2023-02-22T02:22:36.786Z,23.25
2023-02-22T02:24:32.836Z,26.63
2023-02-22T02:25:55.458Z,30.63
2023-02-22T02:27:14.529Z,22.25
2023-02-22T02:28:40.840Z,30.05
2023-02-22T02:30:01.143Z,31.95
2023-02-22T02:31:30.588Z,35.70
2023-02-22T02:32:59.771Z,31.55
2023-02-22T02:34:31.982Z,28.23
2023-02-22T02:35:39.103Z,29.25
2023-02-22T02:37:00.227Z,19.23
2023-02-22T02:38:18.039Z,28.50
2023-02-22T02:39:36.857Z,40.50
2023-02-22T02:41:12.393Z,31.75
2023-02-22T02:42:22.128Z,22.95
2023-02-22T02:43:36.966Z,29.05
2023-02-22T02:44:54.570Z,28.00
2023-02-22T02:46:28.953Z,31.10
2023-02-22T02:47:35.136Z,26.77
2023-02-22T02:48:40.068Z,33.90
2023-02-22T02:49:51.884Z,26.92
2023-02-22T02:50:56.551Z,29.88
2023-02-22T02:51:59.353Z,29.92
2023-02-22T02:53:04.706Z,32.80
2023-02-22T02:54:08.144Z,47.25
2023-02-22T02:55:11.557Z,41.85
2023-02-22T02:56:13.065Z,26.67
2023-02-22T02:57:14.551Z,37.42
2023-02-22T02:58:22.564Z,29.05
2023-02-22T02:59:30.420Z,27.38
2023-02-22T03:00:39.246Z,37.63
2023-02-22T03:01:43.829Z,35.67
2023-02-22T03:02:56.146Z,40.67
2023-02-22T03:04:13.215Z,28.60
2023-02-22T03:05:42.364Z,31.30
2023-02-22T03:06:56.868Z,32.30
2023-02-22T03:08:24.526Z,46.70
2023-02-22T03:09:59.376Z,38.72
2023-02-22T03:11:16.486Z,40.33
2023-02-22T03:12:23.150Z,36.17
2023-02-22T03:13:36.208Z,35.10
2023-02-22T03:14:55.907Z,30.13
2023-02-22T03:16:29.616Z,29.05
2023-02-22T03:17:36.892Z,30.25
2023-02-22T03:18:51.800Z,37.90
2023-02-22T03:20:09.695Z,34.47
2023-02-22T03:21:52.567Z,36.35
2023-02-22T03:23:03.972Z,33.63
2023-02-22T03:24:08.436Z,34.13
2023-02-22T03:25:19.888Z,28.55
2023-02-22T03:26:43.442Z,39.58
2023-02-22T03:27:53.261Z,34.58
2023-02-22T03:28:56.066Z,37.65
2023-02-22T03:30:02.674Z,36.70
2023-02-22T03:31:06.653Z,34.60
2023-02-22T03:32:15.697Z,30.92
2023-02-22T03:33:40.748Z,34.20
2023-02-22T03:35:07.874Z,34.20
2023-02-22T03:36:21.729Z,30.75
2023-02-22T03:37:30.711Z,36.42
2023-02-22T03:38:35.677Z,35.13
2023-02-22T03:39:38.351Z,37.45
2023-02-22T03:40:44.912Z,26.70
2023-02-22T03:41:51.350Z,37.13
2023-02-22T03:42:59.241Z,42.75
2023-02-22T03:44:06.635Z,29.52
2023-02-22T03:45:10.298Z,30.75
2023-02-22T03:46:14.229Z,24.77
2023-02-22T03:47:21.621Z,33.58
2023-02-22T03:48:37.396Z,34.10
2023-02-22T03:49:46.924Z,32.55
2023-02-22T03:50:49.981Z,36.33
2023-02-22T03:51:51.796Z,35.38
2023-02-22T03:52:53.529Z,32.45
2023-02-22T03:53:55.490Z,31.80
2023-02-22T03:54:56.935Z,33.92
2023-02-22T03:56:00.264Z,37.28
2023-02-22T03:57:17.861Z,36.95
2023-02-22T03:58:22.840Z,35.50
2023-02-22T03:59:27.417Z,35.60
2023-02-22T04:00:32.128Z,21.60
2023-02-22T04:01:34.040Z,36.17
2023-02-22T04:02:35.491Z,30.88
2023-02-22T04:03:36.892Z,30.13
2023-02-22T04:04:38.551Z,29.60
2023-02-22T04:05:40.090Z,33.80
2023-02-22T04:06:41.513Z,34.95
2023-02-22T04:07:43.579Z,31.77
2023-02-22T04:09:46.671Z,26.95
2023-02-22T04:10:48.387Z,27.25
2023-02-22T04:11:49.858Z,27.08
2023-02-22T04:12:51.360Z,34.10
2023-02-22T04:13:54.761Z,23.05
2023-02-22T04:14:56.198Z,25.00
2023-02-22T04:15:57.673Z,29.38
2023-02-22T04:16:59.187Z,39.25
2023-02-22T04:18:00.594Z,31.70
2023-02-22T04:19:02.020Z,41.28
2023-02-22T04:20:04.928Z,32.78
2023-02-22T04:21:06.464Z,32.88
2023-02-22T04:22:07.865Z,33.72
2023-02-22T04:23:09.292Z,32.78
2023-02-22T04:24:11.743Z,28.85
2023-02-22T04:25:14.397Z,25.65
2023-02-22T04:26:16.108Z,39.90
2023-02-22T04:27:17.523Z,34.15
2023-02-22T04:28:19.407Z,32.17
2023-02-22T04:29:21.311Z,28.15
2023-02-22T04:30:23.294Z,29.02
2023-02-22T04:32:26.517Z,31.35
2023-02-22T04:33:27.906Z,31.10
2023-02-22T04:34:29.454Z,21.67
2023-02-22T04:35:30.839Z,27.17
2023-02-22T04:36:32.341Z,32.70
2023-02-22T04:37:34.697Z,31.65
2023-02-22T04:38:36.476Z,34.63
2023-02-22T04:39:37.896Z,32.75
2023-02-22T04:40:39.342Z,36.03
2023-02-22T04:41:40.885Z,34.75
2023-02-22T04:42:42.697Z,34.40
2023-02-22T04:43:44.411Z,31.27
2023-02-22T04:44:45.926Z,26.25
2023-02-22T04:45:47.383Z,32.05
2023-02-22T04:46:48.850Z,34.25
2023-02-22T04:47:50.223Z,29.38
2023-02-22T04:48:51.711Z,32.92
2023-02-22T04:49:53.140Z,34.45
2023-02-22T04:50:54.564Z,32.78
2023-02-22T04:51:56.042Z,24.85
2023-02-22T04:52:57.473Z,27.05
2023-02-22T04:53:58.948Z,32.78
2023-02-22T04:55:00.495Z,28.65
2023-02-22T04:56:02.277Z,31.48
2023-02-22T04:57:03.807Z,24.15
2023-02-22T04:58:05.298Z,28.77
2023-02-22T04:59:06.821Z,31.17
2023-02-22T05:00:10.325Z,30.02
2023-02-22T05:01:11.766Z,28.08
2023-02-22T05:02:13.359Z,19.63
2023-02-22T05:03:14.865Z,32.75
2023-02-22T05:04:16.373Z,23.77
2023-02-22T05:05:21.313Z,28.08
2023-02-22T05:06:22.791Z,26.25
2023-02-22T05:07:24.280Z,25.50
2023-02-22T05:08:25.704Z,25.88
2023-02-22T05:09:27.138Z,35.50
2023-02-22T05:10:29.516Z,26.88
2023-02-22T05:11:30.969Z,27.45
2023-02-22T05:12:32.430Z,31.27
2023-02-22T05:13:33.861Z,26.88
2023-02-22T05:14:35.495Z,32.28
2023-02-22T05:15:37.030Z,34.33
2023-02-22T05:16:38.956Z,29.85
2023-02-22T05:17:40.435Z,23.65
2023-02-22T05:18:41.976Z,28.42
2023-02-22T05:19:43.420Z,21.67
2023-02-22T05:20:44.828Z,23.60
2023-02-22T05:21:46.268Z,28.80
2023-02-22T05:22:47.700Z,26.17
2023-02-22T05:23:49.525Z,32.33
2023-02-22T05:24:52.338Z,34.40
2023-02-22T05:25:53.740Z,30.20
2023-02-22T05:26:55.174Z,27.27
2023-02-22T05:28:03.212Z,32.55
2023-02-22T05:30:09.103Z,25.20
2023-02-22T05:31:10.739Z,29.95
2023-02-22T05:32:12.557Z,40.58
2023-02-22T05:33:14.050Z,37.50
2023-02-22T05:34:16.018Z,29.00
2023-02-22T05:35:18.975Z,27.30
2023-02-22T05:36:20.372Z,29.83
2023-02-22T05:37:21.830Z,33.47
2023-02-22T05:38:23.464Z,34.85
2023-02-22T05:39:24.920Z,30.83
2023-02-22T05:40:27.450Z,31.05
2023-02-22T05:41:29.193Z,27.60
2023-02-22T05:42:30.589Z,30.30
2023-02-22T05:43:31.998Z,30.95
2023-02-22T05:44:33.632Z,33.28
2023-02-22T05:45:36.122Z,30.45
2023-02-22T05:46:37.571Z,25.95
2023-02-22T05:47:39.255Z,31.05
2023-02-22T05:48:40.891Z,32.58
2023-02-22T05:49:42.327Z,35.47
2023-02-22T05:50:43.992Z,28.75
2023-02-22T05:51:45.397Z,34.40
2023-02-22T05:52:48.712Z,30.42
2023-02-22T05:53:52.101Z,25.25
2023-02-22T05:54:53.660Z,31.35
2023-02-22T05:55:55.296Z,34.40
2023-02-22T05:56:56.712Z,27.00
2023-02-22T05:57:58.151Z,28.55
2023-02-22T05:58:59.755Z,29.65
2023-02-22T06:00:01.572Z,30.30
2023-02-22T06:01:03.503Z,26.58
2023-02-22T06:03:09.344Z,28.80
2023-02-22T06:04:10.864Z,25.13
2023-02-22T06:05:12.334Z,31.27
2023-02-22T06:06:13.805Z,22.98
2023-02-22T06:07:15.494Z,27.95
2023-02-22T06:08:18.060Z,26.70
2023-02-22T06:09:19.497Z,27.88
2023-02-22T06:10:21.539Z,24.13
2023-02-22T06:12:24.279Z,30.48
2023-02-22T06:13:25.704Z,28.83
2023-02-22T06:14:27.379Z,24.25
2023-02-22T06:15:29.577Z,26.70
2023-02-22T06:16:31.798Z,37.13
2023-02-22T06:17:33.372Z,25.40
2023-02-22T06:18:35.119Z,27.88
2023-02-22T06:19:36.523Z,32.20
2023-02-22T06:20:38.037Z,24.05
2023-02-22T06:21:39.463Z,30.45
2023-02-22T06:22:44.715Z,29.30
2023-02-22T06:23:46.153Z,29.27
2023-02-22T06:24:47.561Z,29.35
2023-02-22T06:25:49.098Z,25.20
2023-02-22T06:26:57.820Z,25.73
2023-02-22T06:28:00.940Z,28.40
2023-02-22T06:29:02.510Z,26.73
2023-02-22T06:30:04.384Z,36.78
2023-02-22T06:31:05.897Z,22.70
2023-02-22T06:32:07.447Z,28.50
2023-02-22T06:33:10.164Z,32.38
2023-02-22T06:34:11.552Z,36.25
2023-02-22T06:35:14.078Z,33.22
2023-02-22T06:36:15.474Z,24.85
2023-02-22T06:37:16.892Z,29.92
2023-02-22T06:38:26.182Z,26.33
2023-02-22T06:39:27.696Z,32.03
2023-02-22T06:40:29.710Z,27.90
2023-02-22T06:42:33.147Z,26.95
2023-02-22T06:44:36.154Z,23.08
2023-02-22T06:45:37.607Z,29.90
2023-02-22T06:46:39.275Z,25.70
2023-02-22T06:47:41.355Z,25.38
2023-02-22T06:49:44.472Z,27.50
2023-02-22T06:50:45.912Z,27.67
2023-02-22T06:51:48.042Z,32.70
2023-02-22T06:52:49.582Z,30.02
2023-02-22T06:53:50.983Z,26.20
2023-02-22T06:54:52.437Z,27.27
2023-02-22T06:55:55.068Z,31.20
2023-02-22T06:56:56.515Z,27.48
2023-02-22T06:57:58.452Z,32.97
2023-02-22T06:59:02.814Z,28.20
2023-02-22T07:00:04.836Z,29.08
2023-02-22T07:01:07.792Z,26.25
2023-02-22T07:02:12.712Z,30.63
2023-02-22T07:03:14.322Z,21.80
2023-02-22T07:04:16.410Z,35.80
2023-02-22T07:06:21.269Z,33.35
2023-02-22T07:07:25.228Z,25.83
2023-02-22T07:08:26.679Z,24.63
2023-02-22T07:09:28.084Z,28.63
2023-02-22T07:10:32.018Z,30.55
2023-02-22T07:11:33.483Z,30.27
2023-02-22T07:12:35.315Z,30.27
2023-02-22T07:13:37.015Z,28.48
2023-02-22T07:14:38.451Z,27.55
2023-02-22T07:15:39.942Z,33.78
2023-02-22T07:16:41.552Z,27.17
2023-02-22T07:17:43.041Z,28.55
2023-02-22T07:18:44.487Z,33.38
2023-02-22T07:19:45.901Z,24.00
2023-02-22T07:20:47.599Z,28.10
2023-02-22T07:21:49.014Z,29.70
2023-02-22T07:22:50.631Z,39.17
2023-02-22T07:23:53.799Z,26.05
2023-02-22T07:24:55.311Z,32.38
2023-02-22T07:26:00.464Z,30.00
2023-02-22T07:27:02.592Z,27.48
2023-02-22T07:28:04.214Z,24.48
2023-02-22T07:29:05.634Z,24.48
2023-02-22T07:30:17.851Z,25.35
2023-02-22T07:31:19.634Z,23.65
2023-02-22T07:32:21.246Z,25.63
2023-02-22T07:34:04.303Z,29.02
2023-02-22T07:35:05.764Z,28.08
2023-02-22T07:36:07.155Z,31.70
2023-02-22T07:37:08.656Z,28.60
2023-02-22T07:38:10.085Z,34.28
2023-02-22T07:39:11.378Z,23.92
2023-02-22T07:40:12.707Z,33.42
2023-02-22T07:41:14.103Z,30.13
2023-02-22T07:42:15.394Z,34.95
2023-02-22T07:43:21.068Z,25.23
2023-02-22T07:44:22.399Z,22.08
2023-02-22T07:45:24.759Z,25.10
2023-02-22T07:46:26.057Z,33.25
2023-02-22T07:47:27.444Z,29.15
2023-02-22T07:48:29.827Z,25.45
2023-02-22T07:49:31.100Z,27.65
2023-02-22T07:50:33.643Z,27.27
2023-02-22T07:51:34.948Z,26.73
2023-02-22T07:52:36.957Z,25.88
2023-02-22T07:54:39.693Z,24.90
2023-02-22T07:55:41.062Z,25.00
2023-02-22T07:56:46.295Z,25.42
2023-02-22T07:57:48.639Z,25.35
2023-02-22T07:58:49.924Z,24.73
2023-02-22T07:59:51.301Z,30.55
2023-02-22T08:00:52.681Z,21.30
2023-02-22T08:01:53.963Z,27.95
2023-02-22T08:02:55.450Z,32.38
2023-02-22T08:03:56.818Z,32.08
2023-02-22T08:04:58.128Z,28.85
2023-02-22T08:06:00.497Z,23.25
2023-02-22T08:07:04.022Z,29.00
2023-02-22T08:08:06.079Z,25.35
2023-02-22T08:09:07.744Z,30.05
2023-02-22T08:10:18.103Z,17.55
2023-02-22T08:11:19.576Z,27.33
2023-02-22T08:12:20.982Z,26.10
2023-02-22T08:13:22.602Z,25.73
2023-02-22T08:14:24.010Z,29.52
2023-02-22T08:15:29.619Z,22.80
2023-02-22T08:16:30.905Z,21.60
2023-02-22T08:17:32.225Z,27.58
2023-02-22T08:18:33.601Z,25.58
2023-02-22T08:19:34.904Z,28.83
2023-02-22T08:20:36.788Z,21.70
2023-02-22T08:21:38.097Z,25.00
2023-02-22T08:22:40.142Z,24.88
2023-02-22T08:24:42.633Z,25.27
2023-02-22T08:25:44.428Z,25.40
2023-02-22T08:26:46.529Z,27.23
2023-02-22T08:27:48.247Z,26.00
2023-02-22T08:28:49.588Z,31.55
2023-02-22T08:29:51.177Z,25.98
2023-02-22T08:30:52.621Z,24.00
2023-02-22T08:31:54.193Z,25.45
2023-02-22T08:32:56.010Z,24.55
2023-02-22T08:33:57.406Z,26.70
2023-02-22T08:34:58.758Z,27.55
2023-02-22T08:36:01.605Z,24.65
2023-02-22T08:37:02.921Z,23.35
2023-02-22T08:38:05.748Z,27.73
2023-02-22T08:39:07.043Z,32.30
2023-02-22T08:40:08.689Z,31.13
2023-02-22T08:41:09.993Z,24.38
2023-02-22T08:42:11.466Z,26.02
2023-02-22T08:43:13.766Z,22.70
2023-02-22T08:44:15.068Z,20.95
2023-02-22T08:45:16.500Z,23.70
2023-02-22T08:46:17.943Z,23.83
2023-02-22T08:47:19.248Z,26.88
2023-02-22T08:48:20.719Z,29.67
2023-02-22T08:49:22.063Z,28.40
2023-02-22T08:50:24.738Z,24.83
2023-02-22T08:51:27.845Z,20.92
2023-02-22T08:52:29.180Z,23.00
2023-02-22T08:53:32.720Z,27.20
2023-02-22T08:54:34.002Z,23.38
2023-02-22T08:55:36.775Z,27.40
2023-02-22T08:56:38.110Z,22.23
2023-02-22T08:57:39.409Z,20.25
2023-02-22T08:58:40.708Z,24.42
2023-02-22T08:59:42.731Z,26.88
2023-02-22T09:01:46.265Z,27.95
2023-02-22T09:02:47.695Z,25.58
2023-02-22T09:03:49.118Z,29.17
2023-02-22T09:04:50.584Z,24.13
2023-02-22T09:05:51.987Z,19.60
2023-02-22T09:06:53.557Z,22.02
2023-02-22T09:07:54.934Z,33.10
2023-02-22T09:08:56.211Z,21.60
2023-02-22T09:09:57.464Z,24.73
2023-02-22T09:10:58.799Z,23.92
2023-02-22T09:12:00.095Z,22.85
2023-02-22T09:13:02.258Z,20.85
2023-02-22T09:14:03.683Z,24.95
2023-02-22T09:15:05.145Z,24.58
2023-02-22T09:16:06.609Z,23.88
2023-02-22T09:17:07.890Z,26.90
2023-02-22T09:18:10.153Z,19.60
2023-02-22T09:19:11.614Z,19.67
2023-02-22T09:20:13.826Z,20.73
2023-02-22T09:21:15.669Z,29.45
2023-02-22T09:22:17.265Z,26.50
2023-02-22T09:23:21.666Z,20.80
2023-02-22T09:24:23.310Z,20.30
2023-02-22T09:25:24.607Z,22.65
2023-02-22T09:26:27.750Z,22.75
2023-02-22T09:27:29.057Z,18.00
2023-02-22T09:28:30.352Z,18.15
2023-02-22T09:29:31.650Z,28.27
2023-02-22T09:30:34.300Z,24.65
2023-02-22T09:31:36.702Z,25.30
2023-02-22T09:32:38.303Z,22.23
2023-02-22T09:33:40.850Z,25.30
2023-02-22T09:34:46.037Z,23.90
2023-02-22T09:35:49.751Z,20.33
2023-02-22T09:36:51.102Z,23.33
2023-02-22T09:37:56.230Z,24.05
2023-02-22T09:38:58.825Z,20.63
2023-02-22T09:40:00.213Z,21.33
2023-02-22T09:41:01.623Z,22.60
2023-02-22T09:42:12.765Z,26.60
2023-02-22T09:43:32.698Z,29.38
2023-02-22T09:46:02.699Z,15.35
2023-02-22T09:47:04.614Z,20.30
2023-02-22T09:48:20.926Z,23.30
2023-02-22T09:49:39.727Z,27.08
2023-02-22T09:50:43.004Z,17.27
2023-02-22T09:52:02.974Z,24.17
2023-02-22T09:54:10.789Z,21.65
2023-02-22T09:55:34.158Z,20.65
2023-02-22T09:56:35.569Z,23.60
2023-02-22T09:57:40.460Z,24.27
2023-02-22T09:58:45.668Z,23.52
2023-02-22T10:00:13.152Z,23.52
2023-02-22T10:01:27.030Z,18.50
2023-02-22T10:03:34.479Z,23.25
2023-02-22T10:04:57.765Z,17.23
2023-02-22T10:06:01.917Z,30.17
2023-02-22T10:07:11.704Z,21.10
2023-02-22T10:08:19.950Z,19.58
2023-02-22T10:09:22.978Z,21.50
2023-02-22T10:10:25.128Z,23.95
2023-02-22T10:11:44.608Z,18.63
2023-02-22T10:12:47.178Z,20.70
2023-02-22T10:13:55.120Z,21.38
2023-02-22T10:16:05.131Z,18.75
2023-02-22T10:17:22.847Z,22.50
2023-02-22T10:18:39.293Z,19.35
2023-02-22T10:19:43.760Z,18.65
2023-02-22T10:20:53.933Z,23.75
2023-02-22T10:22:01.160Z,17.30
2023-02-22T10:23:08.219Z,19.33
2023-02-22T10:24:20.079Z,25.48
2023-02-22T10:25:23.834Z,23.92
2023-02-22T10:26:44.530Z,21.63
2023-02-22T10:27:54.306Z,23.80
2023-02-22T10:29:05.418Z,20.15
2023-02-22T10:30:22.149Z,26.75
2023-02-22T10:31:28.420Z,33.17
2023-02-22T10:32:35.439Z,22.50
2023-02-22T10:33:39.633Z,24.92
2023-02-22T10:34:48.407Z,19.90
2023-02-22T10:35:51.434Z,15.32
2023-02-22T10:36:58.389Z,23.13
2023-02-22T10:38:05.336Z,18.80
2023-02-22T10:39:25.452Z,23.75
2023-02-22T10:40:33.039Z,24.27
2023-02-22T10:41:35.963Z,27.10
2023-02-22T10:42:37.276Z,24.98
2023-02-22T10:43:40.822Z,24.70
2023-02-22T10:44:42.168Z,22.55
2023-02-22T10:45:43.571Z,18.00
2023-02-22T10:46:45.864Z,18.77
2023-02-22T10:47:47.216Z,21.90
2023-02-22T10:48:50.418Z,22.75
2023-02-22T10:50:00.494Z,20.23
2023-02-22T10:51:03.671Z,16.58
2023-02-22T10:52:10.934Z,22.00
2023-02-22T10:53:12.707Z,22.10
2023-02-22T10:54:13.999Z,18.80
2023-02-22T10:55:16.297Z,24.05
2023-02-22T10:56:21.918Z,21.30
2023-02-22T10:57:26.146Z,22.38
2023-02-22T10:58:27.429Z,23.80
2023-02-22T10:59:34.193Z,22.88
2023-02-22T11:00:39.753Z,27.38
2023-02-22T11:01:41.175Z,25.02
2023-02-22T11:02:50.597Z,20.48
2023-02-22T11:04:10.865Z,24.23
2023-02-22T11:05:25.625Z,21.73
2023-02-22T11:06:27.433Z,24.73
2023-02-22T11:07:32.747Z,19.63
2023-02-22T11:08:34.238Z,20.67
2023-02-22T11:09:54.191Z,22.70
2023-02-22T11:12:11.166Z,25.58
2023-02-22T11:13:18.824Z,20.45
2023-02-22T11:14:28.464Z,15.02
2023-02-22T11:15:29.929Z,20.42
2023-02-22T11:16:39.277Z,24.02
2023-02-22T11:17:41.074Z,18.25
2023-02-22T11:18:42.487Z,18.55
2023-02-22T11:19:48.073Z,20.67
2023-02-22T11:20:49.430Z,23.00
2023-02-22T11:21:53.025Z,20.95
2023-02-22T11:22:59.861Z,25.30
2023-02-22T11:24:02.711Z,19.75
2023-02-22T11:25:07.376Z,24.08
2023-02-22T11:26:10.550Z,22.55
2023-02-22T11:27:21.724Z,21.30
2023-02-22T11:28:30.894Z,28.65
2023-02-22T11:29:34.180Z,20.67
2023-02-22T11:30:36.184Z,23.17
2023-02-22T11:31:42.251Z,21.73
2023-02-22T11:32:49.084Z,21.40
2023-02-22T11:33:52.399Z,20.98
2023-02-22T11:35:08.469Z,25.70
2023-02-22T11:36:10.694Z,21.33
2023-02-22T11:37:18.168Z,22.65
2023-02-22T11:38:27.106Z,23.95
2023-02-22T11:39:32.325Z,19.88
2023-02-22T11:40:35.354Z,23.17
2023-02-22T11:41:37.160Z,16.33
2023-02-22T11:42:38.421Z,18.60
2023-02-22T11:43:40.201Z,22.98
2023-02-22T11:44:44.853Z,22.45
2023-02-22T11:45:59.480Z,17.40
2023-02-22T11:47:06.931Z,20.73
2023-02-22T11:48:08.290Z,20.65
2023-02-22T11:49:11.413Z,17.63
2023-02-22T11:50:19.784Z,19.15
2023-02-22T11:51:21.844Z,19.60
2023-02-22T11:52:37.517Z,22.85
2023-02-22T11:53:45.055Z,17.33
2023-02-22T11:54:55.451Z,19.33
2023-02-22T11:55:59.773Z,24.60
2023-02-22T11:57:21.922Z,20.20
2023-02-22T11:58:39.827Z,17.77
2023-02-22T11:59:55.741Z,22.25
2023-02-22T12:01:00.084Z,16.70
2023-02-22T12:02:21.621Z,17.65
2023-02-22T12:03:22.916Z,18.52
2023-02-22T12:04:47.753Z,16.70
2023-02-22T12:06:02.754Z,25.65
2023-02-22T12:07:15.474Z,24.23
2023-02-22T12:08:24.878Z,17.48
2023-02-22T12:09:32.998Z,22.55
2023-02-22T12:10:47.018Z,21.35
2023-02-22T12:13:17.062Z,18.75
2023-02-22T12:14:31.731Z,21.73
2023-02-22T12:15:36.225Z,24.23
2023-02-22T12:16:44.179Z,18.95
2023-02-22T12:18:55.821Z,12.52
2023-02-22T12:19:58.699Z,18.13
2023-02-22T12:21:01.796Z,22.58
2023-02-22T12:22:07.767Z,21.38
2023-02-22T12:23:12.794Z,14.80
2023-02-22T12:24:16.332Z,19.92
2023-02-22T12:25:20.280Z,20.83
2023-02-22T12:26:25.700Z,20.38
2023-02-22T12:27:38.756Z,17.25
2023-02-22T12:28:46.167Z,19.30
2023-02-22T12:29:54.209Z,22.63
2023-02-22T12:32:14.868Z,16.48
2023-02-22T12:33:19.497Z,14.02
2023-02-22T12:34:29.290Z,20.83
2023-02-22T12:35:34.961Z,15.02
2023-02-22T12:36:46.666Z,18.00
2023-02-22T12:38:07.741Z,17.25
2023-02-22T12:39:23.042Z,17.65
2023-02-22T12:40:29.583Z,14.38
2023-02-22T12:41:42.273Z,16.30
2023-02-22T12:42:53.395Z,20.88
2023-02-22T12:43:59.952Z,22.52
2023-02-22T12:45:08.319Z,15.52
2023-02-22T12:46:18.998Z,15.80
2023-02-22T12:47:23.042Z,18.17
2023-02-22T12:48:36.266Z,16.02
2023-02-22T12:49:49.966Z,18.45
2023-02-22T12:50:54.590Z,15.32
2023-02-22T12:52:21.645Z,18.15
2023-02-22T12:53:34.720Z,17.50
2023-02-22T12:54:58.155Z,12.02
2023-02-22T12:56:03.570Z,12.35
2023-02-22T12:57:05.618Z,19.75
2023-02-22T12:58:09.639Z,26.15
2023-02-22T12:59:31.970Z,19.40
2023-02-22T13:00:42.552Z,15.27
2023-02-22T13:01:45.644Z,18.00
2023-02-22T13:03:06.196Z,15.18
2023-02-22T13:04:20.212Z,19.02
2023-02-22T13:05:22.908Z,14.50
2023-02-22T13:06:27.077Z,15.75
2023-02-22T13:07:41.419Z,17.75
2023-02-22T13:08:42.727Z,17.30
2023-02-22T13:09:55.942Z,17.30
2023-02-22T13:11:01.085Z,18.63
2023-02-22T13:12:21.015Z,15.73
2023-02-22T13:14:32.879Z,14.93
2023-02-22T13:15:40.226Z,15.05
2023-02-22T13:16:45.538Z,17.60
2023-02-22T13:17:52.975Z,19.67
2023-02-22T13:18:57.306Z,18.33
2023-02-22T13:20:07.679Z,20.17
2023-02-22T13:21:16.595Z,14.50
2023-02-22T13:22:24.606Z,17.10
2023-02-22T13:23:29.639Z,18.50
2023-02-22T13:24:35.405Z,12.40
2023-02-22T13:25:41.161Z,16.42
2023-02-22T13:26:45.277Z,13.35
2023-02-22T13:27:49.633Z,14.40
2023-02-22T13:28:57.814Z,16.58
2023-02-22T13:29:59.849Z,22.15
2023-02-22T13:31:20.866Z,14.98
2023-02-22T13:32:28.256Z,16.58
2023-02-22T13:33:32.582Z,17.45
2023-02-22T13:34:33.872Z,16.30
2023-02-22T13:35:44.281Z,14.95
2023-02-22T13:37:00.666Z,21.20
2023-02-22T13:38:20.920Z,13.95
2023-02-22T13:39:30.265Z,16.40
2023-02-22T13:40:31.555Z,15.52
2023-02-22T13:41:48.331Z,18.52
2023-02-22T13:43:08.197Z,13.00
2023-02-22T13:44:27.470Z,13.18
2023-02-22T13:45:46.889Z,13.82
2023-02-22T13:46:51.198Z,12.80
2023-02-22T13:48:01.585Z,18.95
2023-02-22T13:49:05.995Z,15.90
2023-02-22T13:50:16.771Z,16.55
2023-02-22T13:51:20.918Z,15.77
2023-02-22T13:52:24.606Z,16.20
2023-02-22T13:53:28.907Z,15.90
2023-02-22T13:54:34.199Z,12.20
2023-02-22T13:55:36.042Z,15.02
2023-02-22T13:56:41.838Z,18.90
2023-02-22T13:57:49.582Z,13.98
2023-02-22T13:58:52.452Z,11.48
2023-02-22T14:00:12.650Z,15.05
2023-02-22T14:01:33.909Z,18.65
2023-02-22T14:02:58.225Z,21.67
2023-02-22T14:04:18.346Z,14.45
2023-02-22T14:05:38.450Z,14.07
2023-02-22T14:06:41.528Z,18.20
2023-02-22T14:07:46.841Z,13.35
2023-02-22T14:08:48.334Z,12.68
2023-02-22T14:09:49.735Z,15.82
2023-02-22T14:10:57.401Z,11.68
2023-02-22T14:11:59.223Z,14.48
2023-02-22T14:13:04.712Z,17.58
2023-02-22T14:14:09.764Z,16.25
2023-02-22T14:15:26.813Z,13.60
2023-02-22T14:16:31.326Z,12.02
2023-02-22T14:17:32.757Z,18.70
2023-02-22T14:18:39.926Z,11.77
2023-02-22T14:19:41.235Z,16.80
2023-02-22T14:20:42.974Z,15.40
2023-02-22T14:22:03.791Z,16.65
2023-02-22T14:23:23.268Z,15.43
2023-02-22T14:24:24.776Z,13.75
2023-02-22T14:25:40.206Z,16.27
2023-02-22T14:26:52.850Z,16.70
2023-02-22T14:27:54.645Z,15.10
2023-02-22T14:28:58.789Z,17.52
2023-02-22T14:30:00.555Z,19.23
2023-02-22T14:31:34.410Z,17.15
2023-02-22T14:32:36.656Z,14.10